createdAt,value
2019-02-08T00:01:49.722Z,21.73
2019-02-08T00:04:19.739Z,15.68
2019-02-08T00:06:51.876Z,23.30
2019-02-08T00:09:21.680Z,16.53
2019-02-08T00:11:52.071Z,19.23
2019-02-08T00:14:22.129Z,16.07
2019-02-08T00:16:52.064Z,19.35
2019-02-08T00:19:22.165Z,14.50
2019-02-08T00:21:52.388Z,17.70
2019-02-08T00:24:22.349Z,12.37
2019-02-08T00:26:52.559Z,18.05
2019-02-08T00:29:22.686Z,16.25
2019-02-08T00:31:52.603Z,21.77
2019-02-08T00:34:22.527Z,11.73
2019-02-08T00:36:52.547Z,14.45
2019-02-08T00:39:22.572Z,13.80
2019-02-08T00:41:52.842Z,18.23
2019-02-08T00:44:23.017Z,19.05
2019-02-08T00:46:53.023Z,17.70
2019-02-08T00:57:01.081Z,20.45
2019-02-08T00:59:31.166Z,14.58
2019-02-08T01:02:01.852Z,19.77
2019-02-08T01:04:34.310Z,15.35
2019-02-08T01:07:04.325Z,16.42
2019-02-08T01:09:35.730Z,18.07
2019-02-08T01:12:06.149Z,13.40
2019-02-08T01:14:36.495Z,22.20
2019-02-08T01:17:06.989Z,14.05
2019-02-08T01:19:36.935Z,17.37
2019-02-08T01:22:07.047Z,14.47
2019-02-08T01:24:37.208Z,15.30
2019-02-08T01:27:07.278Z,14.30
2019-02-08T01:29:37.685Z,15.13
2019-02-08T01:32:07.977Z,10.98
2019-02-08T01:34:37.901Z,12.47
2019-02-08T01:37:08.027Z,15.63
2019-02-08T01:39:37.946Z,13.93
2019-02-08T01:42:08.187Z,16.45
2019-02-08T01:44:38.108Z,12.07
2019-02-08T01:47:08.246Z,12.13
2019-02-08T01:49:38.258Z,14.00
2019-02-08T01:52:08.208Z,6.00
2019-02-08T01:54:38.135Z,7.70
2019-02-08T01:57:08.117Z,6.80
2019-02-08T02:04:02.842Z,7.85
2019-02-08T02:07:10.129Z,7.00
2019-02-08T02:41:23.665Z,7.33
2019-02-08T02:43:53.616Z,9.40
2019-02-08T02:46:23.618Z,6.80
2019-02-08T03:07:00.878Z,7.10
2019-02-08T03:09:31.605Z,6.23
2019-02-08T03:12:01.572Z,7.60
2019-02-08T03:14:32.280Z,9.13
2019-02-08T03:17:02.201Z,7.47
2019-02-08T03:19:32.590Z,6.53
2019-02-08T03:22:02.487Z,8.93
2019-02-08T03:24:32.484Z,6.25
2019-02-08T03:34:15.384Z,9.25
2019-02-08T03:36:45.779Z,5.22
2019-02-08T03:39:15.750Z,6.60
2019-02-08T03:41:45.744Z,6.05
2019-02-08T03:44:15.802Z,6.85
2019-02-08T03:46:45.730Z,6.50
2019-02-08T03:49:16.357Z,7.03
2019-02-08T03:51:46.257Z,9.00
2019-02-08T03:54:21.201Z,7.97
2019-02-08T03:56:48.746Z,7.87
2019-02-08T03:59:18.716Z,7.45
2019-02-08T04:01:48.690Z,12.40
2019-02-08T04:04:18.790Z,5.30
2019-02-08T04:06:48.746Z,8.35
2019-02-08T04:09:18.659Z,5.90
2019-02-08T04:11:48.622Z,8.58
2019-02-08T04:18:10.870Z,10.47
2019-02-08T04:20:41.225Z,15.58
2019-02-08T04:23:11.195Z,6.58
2019-02-08T04:25:41.155Z,7.50
2019-02-08T04:28:11.204Z,9.70
2019-02-08T04:30:41.266Z,10.90
2019-02-08T04:33:11.306Z,6.67
2019-02-08T04:35:41.315Z,8.73
2019-02-08T04:38:11.612Z,6.90
2019-02-08T04:40:41.588Z,9.93
2019-02-08T04:43:11.720Z,10.13
2019-02-08T04:45:42.030Z,8.33
2019-02-08T04:48:12.005Z,6.40
2019-02-08T04:50:41.904Z,6.97
2019-02-08T04:57:03.655Z,8.60
2019-02-08T04:59:34.179Z,11.70
2019-02-08T05:02:04.496Z,6.33
2019-02-08T05:04:34.556Z,15.30
2019-02-08T05:07:04.521Z,9.73
2019-02-08T05:09:34.414Z,7.80
2019-02-08T05:12:04.321Z,11.15
2019-02-08T05:14:34.241Z,10.40
2019-02-08T05:17:04.308Z,8.73
2019-02-08T05:19:34.390Z,13.70
2019-02-08T05:22:04.398Z,10.30
2019-02-08T05:24:34.313Z,20.68
2019-02-08T05:27:04.246Z,13.40
2019-02-08T06:02:13.221Z,8.75
2019-02-08T06:04:43.618Z,11.48
2019-02-08T06:07:13.541Z,15.35
2019-02-08T06:09:43.449Z,8.90
2019-02-08T06:12:13.763Z,10.95
2019-02-08T06:14:43.756Z,14.43
2019-02-08T06:37:56.564Z,11.83
2019-02-08T06:40:27.073Z,12.25
2019-02-08T06:42:57.124Z,12.35
2019-02-08T06:45:28.163Z,24.18
2019-02-08T06:47:58.271Z,16.60
2019-02-08T06:50:28.518Z,19.10
2019-02-08T07:00:07.713Z,14.03
2019-02-08T07:02:51.425Z,13.75
2019-02-08T07:05:42.644Z,9.25
2019-02-08T07:08:23.132Z,15.80
2019-02-08T07:11:12.197Z,13.32
2019-02-08T07:14:10.376Z,12.80
2019-02-08T07:17:08.763Z,15.50
2019-02-08T07:19:49.133Z,10.13
2019-02-08T07:22:33.305Z,13.65
2019-02-08T07:25:20.625Z,14.15
2019-02-08T07:27:57.479Z,14.43
2019-02-08T07:30:55.067Z,11.12
2019-02-08T07:33:32.570Z,11.30
2019-02-08T07:36:15.025Z,16.73
2019-02-08T07:38:54.638Z,11.10
2019-02-08T07:41:55.148Z,18.60
2019-02-08T07:44:45.289Z,16.97
2019-02-08T08:05:53.378Z,13.08
2019-02-08T08:08:35.919Z,15.60
2019-02-08T10:07:16.569Z,6.10
2019-02-08T10:10:32.580Z,7.40
2019-02-08T10:13:50.627Z,9.10
2019-02-08T10:17:36.460Z,6.63
2019-02-08T10:21:14.079Z,9.90
2019-02-08T10:24:54.357Z,11.00
2019-02-08T11:53:34.983Z,4.37
2019-02-08T11:56:05.750Z,4.87
2019-02-08T11:58:35.901Z,4.17
2019-02-08T12:01:06.154Z,6.43
2019-02-08T12:11:28.007Z,4.00
2019-02-08T12:13:57.913Z,4.90
2019-02-08T12:16:27.838Z,4.03
2019-02-08T12:18:57.744Z,4.93
2019-02-08T12:21:27.856Z,3.97
2019-02-08T12:23:57.886Z,7.23
2019-02-08T12:26:28.506Z,6.80
2019-02-08T12:28:58.458Z,5.43
2019-02-08T12:31:28.402Z,5.90
2019-02-08T12:33:58.602Z,5.80
2019-02-08T12:36:28.531Z,5.53
2019-02-08T12:38:58.439Z,5.70
2019-02-08T12:45:19.991Z,6.60
2019-02-08T12:47:49.911Z,6.80
2019-02-08T12:50:20.271Z,10.50
2019-02-08T12:52:50.606Z,10.00
2019-02-08T12:55:20.857Z,3.37
2019-02-08T12:57:51.212Z,3.70
2019-02-08T13:00:21.860Z,3.30
2019-02-08T13:02:51.996Z,6.07
2019-02-08T13:05:22.315Z,12.70
2019-02-08T13:07:52.628Z,7.60
2019-02-08T13:10:24.234Z,3.97
2019-02-08T13:12:55.167Z,7.90
2019-02-08T13:21:32.688Z,10.10
2019-02-08T13:24:02.590Z,7.37
2019-02-08T13:26:32.565Z,6.70
2019-02-08T13:29:02.467Z,4.53
2019-02-08T13:31:32.359Z,7.37
2019-02-08T13:34:02.321Z,7.00
2019-02-08T13:36:32.234Z,5.03
2019-02-08T13:39:02.123Z,6.80
2019-02-08T13:41:32.118Z,5.07
2019-02-08T13:55:24.543Z,6.13
2019-02-08T13:57:54.593Z,5.90
2019-02-08T14:07:07.261Z,7.70
2019-02-08T14:09:37.147Z,5.27
2019-02-08T14:12:07.231Z,6.77
2019-02-08T14:14:37.217Z,6.63
2019-02-08T14:17:07.513Z,12.33
2019-02-08T14:19:37.471Z,9.70
2019-02-08T14:22:07.583Z,5.33
2019-02-08T14:24:37.621Z,7.60
2019-02-08T14:27:08.728Z,3.30
2019-02-08T14:29:38.726Z,4.40
2019-02-08T14:35:59.815Z,4.93
2019-02-08T14:38:29.943Z,3.90
2019-02-08T14:47:42.675Z,6.93
2019-02-08T14:50:17.664Z,5.00
2019-02-08T14:52:48.455Z,4.63
2019-02-08T14:55:18.945Z,3.23
2019-02-08T15:01:15.051Z,7.83
2019-02-08T15:03:45.024Z,7.07
2019-02-08T15:06:15.025Z,4.30
2019-02-08T15:08:45.404Z,3.97
2019-02-08T15:11:15.335Z,4.70
2019-02-08T15:13:45.498Z,7.73
2019-02-08T15:16:15.461Z,4.90
2019-02-08T15:18:45.352Z,6.03
2019-02-08T15:21:16.167Z,8.13
2019-02-08T15:23:46.067Z,6.40
2019-02-08T15:26:16.403Z,10.43
2019-02-08T15:28:46.375Z,3.20
2019-02-08T15:31:16.380Z,5.77
2019-02-08T15:33:46.293Z,3.90
2019-02-08T15:36:16.453Z,8.13
2019-02-08T15:38:46.347Z,6.53
2019-02-08T15:41:16.732Z,3.90
2019-02-08T15:43:47.239Z,8.57
2019-02-08T15:46:17.356Z,3.80
2019-02-08T15:52:19.323Z,7.97
2019-02-08T15:54:49.363Z,6.90
2019-02-08T15:57:19.601Z,7.37
2019-02-08T15:59:49.522Z,6.47
2019-02-08T16:02:19.562Z,7.63
2019-02-08T16:04:50.292Z,4.87
2019-02-08T16:07:20.194Z,9.70
2019-02-08T16:09:50.084Z,14.70
2019-02-08T16:12:20.108Z,6.97
2019-02-08T16:18:44.014Z,3.97
2019-02-08T16:21:14.105Z,8.70
2019-02-08T16:23:44.010Z,11.57
2019-02-08T16:26:14.915Z,10.40
2019-02-08T16:32:36.137Z,6.10
2019-02-08T16:35:07.590Z,7.93
2019-02-08T16:37:37.566Z,9.63
2019-02-08T16:43:33.870Z,9.90
2019-02-08T16:46:04.100Z,10.27
2019-02-08T17:04:45.799Z,12.07
2019-02-08T17:07:15.696Z,9.43
2019-02-08T17:09:45.585Z,12.73
2019-02-08T17:15:48.218Z,8.67
2019-02-08T17:18:18.134Z,13.37
2019-02-08T17:20:48.706Z,10.83
2019-02-08T17:23:18.686Z,9.37
2019-02-08T17:25:48.902Z,9.03
2019-02-08T17:28:18.793Z,7.13
2019-02-08T17:30:48.770Z,11.83
2019-02-08T17:33:18.698Z,11.90
2019-02-08T17:35:48.641Z,10.47
2019-02-08T17:38:19.389Z,17.20
2019-02-08T17:40:49.667Z,11.23
2019-02-08T17:43:20.034Z,11.40
2019-02-08T17:45:49.976Z,11.43
2019-02-08T17:48:20.017Z,12.80
2019-02-08T17:50:49.925Z,10.70
2019-02-08T17:53:20.039Z,8.20
2019-02-08T18:14:27.374Z,12.80
2019-02-08T18:16:57.627Z,10.17
2019-02-08T18:19:27.914Z,19.07
2019-02-08T18:21:58.190Z,24.53
2019-02-08T18:24:28.294Z,13.23
2019-02-08T18:26:58.241Z,13.30
2019-02-08T18:29:29.047Z,9.23
2019-02-08T18:31:58.928Z,12.27
2019-02-08T18:38:20.219Z,14.23
2019-02-08T18:40:50.242Z,19.40
2019-02-08T18:43:20.235Z,7.53
2019-02-08T18:45:50.196Z,11.10
2019-02-08T18:48:20.671Z,7.60
2019-02-08T18:50:53.006Z,7.13
2019-02-08T18:53:22.977Z,7.80
2019-02-08T18:55:52.891Z,11.10
2019-02-08T18:58:22.861Z,11.03
2019-02-08T19:04:45.503Z,13.33
2019-02-08T19:07:15.484Z,9.40
2019-02-08T19:09:45.488Z,10.40
2019-02-08T19:12:15.418Z,12.83
2019-02-08T19:14:46.386Z,14.43
2019-02-08T19:17:16.272Z,11.37
2019-02-08T19:19:46.870Z,11.23
2019-02-08T19:22:16.863Z,11.27
2019-02-08T19:24:46.827Z,11.87
2019-02-08T19:27:16.711Z,11.63
2019-02-08T19:29:46.672Z,11.47
2019-02-08T19:32:16.890Z,12.13
2019-02-08T19:34:46.971Z,14.80
2019-02-08T19:37:16.857Z,13.50
2019-02-08T19:39:47.022Z,23.27
2019-02-08T19:42:17.255Z,14.50
2019-02-08T19:44:47.212Z,12.20
2019-02-08T19:47:17.299Z,15.80
2019-02-08T19:49:47.324Z,13.57
2019-02-08T19:52:17.363Z,16.87
2019-02-08T19:54:47.988Z,12.00
2019-02-08T19:57:17.896Z,11.70
2019-02-08T19:59:47.804Z,15.50
2019-02-08T20:02:17.766Z,12.20
2019-02-08T20:04:47.787Z,14.20
2019-02-08T20:07:17.771Z,12.83
2019-02-08T20:09:50.500Z,9.17
2019-02-08T20:12:20.645Z,12.73
2019-02-08T20:14:50.565Z,17.20
2019-02-08T20:17:20.660Z,16.10
2019-02-08T20:19:50.611Z,14.30
2019-02-08T20:22:20.907Z,14.17
2019-02-08T20:24:50.855Z,15.50
2019-02-08T20:27:20.881Z,21.40
2019-02-08T20:29:50.876Z,14.57
2019-02-08T20:32:20.793Z,19.98
2019-02-08T20:34:50.729Z,11.83
2019-02-08T20:37:20.922Z,15.17
2019-02-08T20:39:50.881Z,24.30
2019-02-08T20:42:20.780Z,16.67
2019-02-08T20:44:50.705Z,24.10
2019-02-08T20:47:20.667Z,12.20
2019-02-08T20:49:50.647Z,11.80
2019-02-08T20:52:21.207Z,13.40
2019-02-08T20:54:51.253Z,13.93
2019-02-08T20:57:21.655Z,14.40
2019-02-08T20:59:51.756Z,20.27
2019-02-08T21:02:22.334Z,27.30
2019-02-08T21:04:53.348Z,21.27
2019-02-08T21:07:23.414Z,23.83
2019-02-08T21:09:53.833Z,16.40
2019-02-08T21:12:24.276Z,15.67
2019-02-08T21:14:54.201Z,17.53
2019-02-08T21:17:24.348Z,28.07
2019-02-08T21:19:54.269Z,21.67
2019-02-08T21:22:24.184Z,25.17
2019-02-08T21:24:54.335Z,28.97
2019-02-08T21:27:24.587Z,44.23
2019-02-08T21:29:54.745Z,25.93
2019-02-08T21:36:16.155Z,14.47
2019-02-08T21:38:46.054Z,16.23
2019-02-08T21:41:16.335Z,15.30
2019-02-08T21:43:46.317Z,22.27
2019-02-08T21:50:01.474Z,24.47
2019-02-08T21:52:31.567Z,42.17
2019-02-08T22:01:23.031Z,13.67
2019-02-08T22:03:53.799Z,29.77
2019-02-08T22:06:23.804Z,25.05
2019-02-08T22:08:53.848Z,34.20
2019-02-08T22:11:23.739Z,31.45
2019-02-08T22:13:53.659Z,33.63
2019-02-08T22:16:23.956Z,45.67
2019-02-08T22:18:53.858Z,25.80
2019-02-08T22:21:23.754Z,43.33
2019-02-08T22:23:53.675Z,32.53
2019-02-08T22:26:24.241Z,35.60
2019-02-08T22:28:54.160Z,33.45
2019-02-08T22:31:24.853Z,19.77
2019-02-08T22:33:55.018Z,26.70
2019-02-08T22:36:25.093Z,12.37
2019-02-08T22:38:54.999Z,13.88
2019-02-08T22:41:24.900Z,20.27
2019-02-08T22:43:54.912Z,18.65
2019-02-08T22:46:24.949Z,19.48
2019-02-08T22:48:54.907Z,13.68
2019-02-08T22:51:25.107Z,11.45
2019-02-08T22:53:55.155Z,19.65
2019-02-08T22:56:25.122Z,13.20
2019-02-08T22:58:55.002Z,16.32
2019-02-08T23:01:36.699Z,14.68
2019-02-08T23:04:08.007Z,12.75
2019-02-08T23:06:44.615Z,12.30
2019-02-08T23:09:20.976Z,16.60
2019-02-08T23:11:51.012Z,10.72
2019-02-08T23:14:21.095Z,17.50
2019-02-08T23:16:51.421Z,11.78
2019-02-08T23:19:21.450Z,9.88
2019-02-08T23:21:52.712Z,15.72
2019-02-08T23:24:22.603Z,17.17
2019-02-08T23:26:52.631Z,12.05
2019-02-08T23:29:29.658Z,4.42
2019-02-08T23:31:54.420Z,10.93
2019-02-08T23:34:24.302Z,4.62
2019-02-08T23:36:54.496Z,7.33
2019-02-08T23:39:24.856Z,7.53
2019-02-08T23:41:54.785Z,5.65
2019-02-08T23:44:24.739Z,7.95
2019-02-08T23:46:54.671Z,7.20
2019-02-08T23:49:25.392Z,4.37
2019-02-08T23:51:55.327Z,5.45
2019-02-08T23:54:25.231Z,11.70
2019-02-08T23:56:55.227Z,7.87
2019-02-08T23:59:25.133Z,5.30
